createdAt,value
2022-10-19T00:00:40.542Z,96.71
2022-10-19T00:01:40.882Z,96.61
2022-10-19T00:02:41.121Z,96.61
2022-10-19T00:03:41.498Z,96.20
2022-10-19T00:04:41.721Z,96.30
2022-10-19T00:05:42.001Z,96.41
2022-10-19T00:06:42.309Z,96.30
2022-10-19T00:07:42.632Z,96.41
2022-10-19T00:08:42.941Z,96.66
2022-10-19T00:09:43.251Z,96.55
2022-10-19T00:10:43.554Z,96.55
2022-10-19T00:11:43.907Z,96.86
2022-10-19T00:12:44.164Z,96.86
2022-10-19T00:13:44.393Z,96.66
2022-10-19T00:14:44.713Z,96.96
2022-10-19T00:15:48.851Z,96.96
2022-10-19T00:16:45.359Z,97.16
2022-10-19T00:17:45.664Z,96.96
2022-10-19T00:18:45.942Z,97.26
2022-10-19T00:19:46.271Z,97.06
2022-10-19T00:20:46.599Z,96.75
2022-10-19T00:21:46.931Z,96.90
2022-10-19T00:22:47.263Z,96.90
2022-10-19T00:23:47.556Z,97.00
2022-10-19T00:24:47.869Z,97.00
2022-10-19T00:25:48.143Z,97.11
2022-10-19T00:26:48.450Z,97.00
2022-10-19T00:27:48.785Z,97.61
2022-10-19T00:28:49.165Z,97.47
2022-10-19T00:29:49.392Z,97.16
2022-10-19T00:31:49.974Z,97.06
2022-10-19T00:32:50.308Z,97.16
2022-10-19T00:33:50.612Z,97.16
2022-10-19T00:34:50.946Z,96.86
2022-10-19T00:35:51.254Z,96.70
2022-10-19T00:36:51.578Z,96.90
2022-10-19T00:37:51.890Z,96.80
2022-10-19T00:38:52.189Z,97.20
2022-10-19T00:39:52.554Z,97.06
2022-10-19T00:40:52.741Z,97.06
2022-10-19T00:41:53.051Z,97.31
2022-10-19T00:42:53.333Z,97.16
2022-10-19T00:43:53.627Z,97.26
2022-10-19T00:44:53.961Z,97.11
2022-10-19T00:45:54.153Z,97.00
2022-10-19T00:46:54.468Z,97.20
2022-10-19T00:47:54.802Z,97.11
2022-10-19T00:48:55.121Z,97.31
2022-10-19T00:49:55.436Z,97.26
2022-10-19T00:50:55.742Z,97.06
2022-10-19T00:51:56.041Z,97.26
2022-10-19T02:56:04.686Z,99.11
2022-10-19T02:57:04.926Z,98.91
2022-10-19T02:58:05.167Z,98.81
2022-10-19T02:59:05.385Z,98.50
2022-10-19T03:00:05.644Z,98.61
2022-10-19T03:01:05.897Z,98.61
2022-10-19T03:02:06.152Z,98.41
2022-10-19T03:03:06.358Z,98.35
2022-10-19T03:04:06.668Z,98.25
2022-10-19T03:05:06.995Z,98.14
2022-10-19T03:06:07.334Z,98.05
2022-10-19T03:07:07.547Z,98.05
2022-10-19T03:08:07.866Z,98.25
2022-10-19T03:09:08.175Z,98.35
2022-10-19T03:10:08.478Z,98.30
2022-10-19T03:11:08.822Z,98.39
2022-10-19T03:12:09.086Z,98.39
2022-10-19T03:13:09.293Z,98.39
2022-10-19T03:14:09.622Z,98.50
2022-10-19T03:15:09.952Z,98.60
2022-10-19T03:16:10.276Z,98.50
2022-10-19T03:17:10.643Z,98.39
2022-10-19T03:18:10.842Z,98.50
2022-10-19T03:19:11.136Z,98.50
2022-10-19T03:20:11.468Z,98.50
2022-10-19T03:21:11.681Z,98.65
2022-10-19T03:22:12.005Z,98.60
2022-10-19T03:23:12.344Z,98.85
2022-10-19T03:24:12.599Z,98.75
2022-10-19T03:25:12.785Z,98.85
2022-10-19T03:26:13.113Z,98.75
2022-10-19T03:27:13.428Z,98.85
2022-10-19T03:28:13.761Z,99.56
2022-10-19T03:29:13.960Z,99.92
2022-10-19T03:30:14.262Z,99.92
2022-10-19T03:31:14.596Z,99.62
2022-10-19T03:32:14.915Z,99.98
2022-10-19T03:33:15.307Z,99.77
2022-10-19T03:34:15.563Z,99.57
2022-10-19T03:35:15.770Z,99.27
2022-10-19T03:36:16.095Z,98.96
2022-10-19T03:37:16.418Z,98.75
2022-10-19T03:38:16.712Z,98.60
2022-10-19T03:39:17.071Z,98.50
2022-10-19T03:40:17.311Z,98.50
2022-10-19T03:41:17.507Z,98.50
2022-10-19T03:42:17.857Z,98.50
2022-10-19T03:43:18.043Z,98.70
2022-10-19T03:44:18.371Z,98.70
2022-10-19T03:45:18.681Z,98.91
2022-10-19T03:46:18.978Z,99.11
2022-10-19T03:47:19.333Z,98.91
2022-10-19T03:48:19.606Z,98.60
2022-10-19T03:49:19.940Z,98.30
2022-10-19T03:50:20.133Z,98.19
2022-10-19T03:51:20.456Z,98.09
2022-10-19T03:52:20.756Z,98.14
2022-10-19T03:53:21.069Z,98.14
2022-10-19T03:54:23.709Z,98.14
2022-10-19T03:55:22.704Z,98.03
2022-10-19T03:56:21.980Z,98.03
2022-10-19T03:57:22.183Z,98.03
2022-10-19T03:58:22.492Z,98.03
2022-10-19T03:59:22.835Z,97.83
2022-10-19T04:00:23.038Z,97.73
2022-10-19T04:01:23.436Z,97.63
2022-10-19T04:02:23.687Z,97.63
2022-10-19T04:03:24.046Z,97.53
2022-10-19T04:04:24.303Z,97.22
2022-10-19T04:05:24.496Z,97.42
2022-10-19T04:06:24.815Z,97.32
2022-10-19T04:07:25.154Z,97.53
2022-10-19T04:08:25.466Z,97.73
2022-10-19T04:09:25.816Z,98.03
2022-10-19T04:10:26.004Z,98.03
2022-10-19T04:11:26.343Z,97.93
2022-10-19T04:12:26.706Z,98.34
2022-10-19T04:13:26.899Z,98.30
2022-10-19T04:14:39.051Z,97.99
2022-10-19T04:15:28.569Z,98.09
2022-10-19T04:16:27.835Z,98.09
2022-10-19T04:17:28.158Z,97.89
2022-10-19T04:18:28.515Z,97.99
2022-10-19T04:19:28.716Z,98.09
2022-10-19T04:20:29.046Z,98.09
2022-10-19T04:21:29.377Z,98.09
2022-10-19T04:22:29.748Z,98.09
2022-10-19T04:23:29.952Z,98.09
2022-10-19T04:24:30.260Z,98.30
2022-10-19T04:25:30.596Z,98.70
2022-10-19T04:26:30.815Z,98.50
2022-10-19T04:27:31.284Z,98.91
2022-10-19T04:28:31.536Z,98.91
2022-10-19T04:29:31.786Z,98.09
2022-10-19T04:30:32.105Z,98.05
2022-10-19T04:31:32.404Z,97.94
2022-10-19T04:32:32.775Z,97.99
2022-10-19T04:33:33.046Z,97.99
2022-10-19T04:34:35.256Z,98.19
2022-10-19T04:35:33.613Z,98.09
2022-10-19T04:36:33.938Z,98.19
2022-10-19T04:37:34.719Z,98.39
2022-10-19T04:38:34.525Z,98.39
2022-10-19T04:39:34.843Z,98.34
2022-10-19T04:40:35.168Z,98.34
2022-10-19T04:41:35.492Z,98.24
2022-10-19T04:42:35.840Z,98.14
2022-10-19T04:43:57.145Z,98.24
2022-10-19T04:44:36.477Z,98.14
2022-10-19T04:45:36.785Z,98.28
2022-10-19T04:46:37.104Z,98.39
2022-10-19T04:47:37.454Z,98.44
2022-10-19T04:48:37.695Z,98.44
2022-10-19T04:49:37.895Z,98.24
2022-10-19T04:50:38.234Z,97.93
2022-10-19T04:51:42.296Z,97.93
2022-10-19T04:52:38.790Z,97.63
2022-10-19T04:53:42.924Z,97.73
2022-10-19T04:54:39.418Z,97.73
2022-10-19T04:55:39.737Z,97.32
2022-10-19T04:56:40.066Z,97.32
2022-10-19T04:57:40.413Z,97.67
2022-10-19T04:58:44.512Z,97.67
2022-10-19T04:59:44.785Z,97.67
2022-10-19T05:00:41.183Z,97.88
2022-10-19T05:01:46.433Z,98.39
2022-10-19T05:02:42.713Z,98.08
2022-10-19T05:03:41.968Z,98.08
2022-10-19T05:04:45.133Z,97.98
2022-10-19T05:05:42.521Z,97.98
2022-10-19T05:06:42.855Z,97.92
2022-10-19T05:07:43.924Z,98.02
2022-10-19T05:08:43.436Z,98.13
2022-10-19T05:09:47.597Z,98.33
2022-10-19T05:10:47.004Z,98.74
2022-10-19T05:11:44.409Z,98.74
2022-10-19T05:12:44.625Z,98.74
2022-10-19T05:13:44.984Z,98.84
2022-10-19T05:14:47.026Z,99.09
2022-10-19T05:15:45.435Z,99.29
2022-10-19T05:16:45.769Z,99.40
2022-10-19T05:17:47.862Z,99.55
2022-10-19T05:18:46.421Z,99.55
2022-10-19T05:19:46.624Z,99.25
2022-10-19T05:20:46.937Z,99.25
2022-10-19T05:21:47.256Z,99.45
2022-10-19T05:22:47.561Z,99.25
2022-10-19T05:23:47.914Z,99.10
2022-10-19T05:24:48.127Z,98.79
2022-10-19T05:25:52.287Z,98.59
2022-10-19T05:26:48.673Z,98.64
2022-10-19T05:27:48.987Z,98.74
2022-10-19T05:28:49.393Z,98.84
2022-10-19T05:29:49.625Z,99.04
2022-10-19T05:30:49.953Z,99.35
2022-10-19T05:31:50.278Z,99.20
2022-10-19T05:32:50.616Z,98.79
2022-10-19T05:33:50.981Z,98.49
2022-10-19T05:34:51.214Z,98.18
2022-10-19T05:35:51.396Z,98.08
2022-10-19T05:36:51.696Z,98.08
2022-10-19T05:37:51.993Z,97.88
2022-10-19T05:38:52.341Z,97.67
2022-10-19T05:39:52.547Z,97.47
2022-10-19T05:40:53.668Z,97.16
2022-10-19T05:41:53.103Z,97.06
2022-10-19T05:42:53.456Z,97.16
2022-10-19T05:43:53.668Z,97.31
2022-10-19T05:44:57.769Z,97.31
2022-10-19T05:45:55.003Z,97.21
2022-10-19T05:46:54.560Z,97.21
2022-10-19T05:47:54.762Z,97.21
2022-10-19T05:48:55.096Z,97.21
2022-10-19T05:49:55.415Z,97.11
2022-10-19T05:50:55.713Z,97.00
2022-10-19T05:51:56.073Z,97.11
2022-10-19T05:52:56.280Z,96.91
2022-10-19T05:53:56.586Z,96.91
2022-10-19T05:54:56.892Z,97.00
2022-10-19T05:55:57.185Z,97.00
2022-10-19T05:56:57.504Z,97.11
2022-10-19T05:57:57.717Z,97.21
2022-10-19T05:58:58.053Z,97.41
2022-10-19T05:59:58.360Z,97.41
2022-10-19T06:00:58.680Z,97.41
2022-10-19T06:02:02.787Z,97.41
2022-10-19T06:02:59.392Z,97.41
2022-10-19T06:04:00.348Z,97.41
2022-10-19T06:04:59.853Z,97.11
2022-10-19T06:06:00.172Z,97.11
2022-10-19T06:07:00.506Z,97.21
2022-10-19T06:08:00.879Z,97.31
2022-10-19T06:09:01.088Z,98.08
2022-10-19T06:10:01.411Z,97.98
2022-10-19T06:11:01.740Z,97.67
2022-10-19T06:12:02.058Z,97.78
2022-10-19T06:13:02.417Z,97.53
2022-10-19T06:14:02.611Z,97.42
2022-10-19T06:15:04.731Z,96.92
2022-10-19T06:16:06.938Z,96.51
2022-10-19T06:17:03.470Z,96.41
2022-10-19T06:18:03.663Z,96.61
2022-10-19T06:19:03.993Z,96.56
2022-10-19T06:20:04.332Z,96.46
2022-10-19T06:21:08.407Z,96.46
2022-10-19T06:22:04.923Z,96.36
2022-10-19T06:23:05.115Z,96.06
2022-10-19T06:24:05.440Z,95.75
2022-10-19T06:25:05.788Z,95.65
2022-10-19T06:26:05.991Z,95.50
2022-10-19T06:27:06.315Z,95.30
2022-10-19T06:28:06.522Z,95.00
2022-10-19T06:29:06.852Z,95.09
2022-10-19T06:30:07.165Z,95.30
2022-10-19T06:31:09.209Z,95.40
2022-10-19T06:32:11.678Z,95.81
2022-10-19T06:33:08.044Z,96.22
2022-10-19T06:34:08.455Z,96.31
2022-10-19T06:35:08.705Z,96.58
2022-10-19T06:36:08.906Z,96.78
2022-10-19T06:37:09.237Z,96.88
2022-10-19T06:38:09.615Z,96.98
2022-10-19T06:39:09.813Z,97.08
2022-10-19T06:40:10.200Z,96.88
2022-10-19T06:41:10.480Z,97.08
2022-10-19T06:42:10.697Z,97.14
2022-10-19T06:43:11.058Z,97.14
2022-10-19T06:44:15.054Z,97.34
2022-10-19T06:45:11.543Z,97.34
2022-10-19T06:46:11.872Z,97.14
2022-10-19T06:47:12.247Z,97.14
2022-10-19T06:48:12.500Z,97.40
2022-10-19T06:49:12.752Z,97.40
2022-10-19T06:50:13.001Z,97.30
2022-10-19T06:51:13.198Z,97.30
2022-10-19T06:52:13.540Z,97.09
2022-10-19T06:53:13.871Z,97.20
2022-10-19T06:54:14.197Z,97.05
2022-10-19T06:55:14.554Z,96.95
2022-10-19T06:56:14.762Z,96.75
2022-10-19T06:57:15.060Z,96.84
2022-10-19T06:58:15.419Z,97.05
2022-10-19T06:59:15.743Z,97.05
2022-10-19T07:00:15.941Z,96.95
2022-10-19T07:01:16.349Z,96.75
2022-10-19T07:02:16.610Z,96.70
2022-10-19T07:03:16.952Z,96.80
2022-10-19T07:04:17.261Z,96.30
2022-10-19T07:05:17.640Z,96.19
2022-10-19T07:06:17.859Z,96.09
2022-10-19T07:07:18.182Z,95.74
2022-10-19T07:08:18.482Z,95.84
2022-10-19T07:09:18.854Z,95.74
2022-10-19T07:10:19.051Z,95.64
2022-10-19T07:11:19.381Z,95.43
2022-10-19T07:12:19.710Z,95.43
2022-10-19T07:13:20.024Z,95.39
2022-10-19T07:14:20.393Z,95.29
2022-10-19T07:15:20.600Z,95.09
2022-10-19T07:16:21.722Z,94.78
2022-10-19T07:17:21.203Z,94.54
2022-10-19T07:18:21.526Z,94.68
2022-10-19T07:19:21.871Z,94.89
2022-10-19T07:20:22.174Z,94.98
2022-10-19T07:21:22.474Z,94.64
2022-10-19T07:22:27.852Z,94.64
2022-10-19T07:23:24.124Z,94.43
2022-10-19T07:24:23.383Z,94.19
2022-10-19T07:25:24.786Z,93.99
2022-10-19T07:26:24.060Z,93.78
2022-10-19T07:27:24.285Z,93.68
2022-10-19T07:28:24.477Z,93.48
2022-10-19T07:29:26.574Z,93.27
2022-10-19T07:30:25.168Z,93.03
2022-10-19T07:31:25.363Z,92.77
2022-10-19T07:32:25.716Z,93.03
2022-10-19T07:33:26.019Z,92.63
2022-10-19T07:34:28.985Z,92.52
2022-10-19T07:35:26.627Z,92.52
2022-10-19T07:36:26.965Z,92.52
2022-10-19T07:37:27.281Z,92.22
2022-10-19T07:38:27.598Z,91.87
2022-10-19T07:39:27.947Z,91.67
2022-10-19T07:40:28.154Z,91.63
2022-10-19T07:41:28.478Z,91.63
2022-10-19T07:42:28.820Z,91.32
2022-10-19T07:43:29.018Z,90.98
2022-10-19T07:44:29.375Z,90.78
2022-10-19T07:45:29.577Z,90.58
2022-10-19T07:46:29.910Z,89.97
2022-10-19T07:47:30.318Z,89.87
2022-10-19T07:48:30.554Z,89.46
2022-10-19T07:49:30.917Z,89.66
2022-10-19T07:50:31.108Z,89.76
2022-10-19T07:51:31.438Z,89.66
2022-10-19T07:52:34.380Z,89.72
2022-10-19T07:53:32.973Z,89.42
2022-10-19T07:54:32.268Z,89.32
2022-10-19T07:55:32.471Z,89.22
2022-10-19T07:56:32.795Z,88.92
2022-10-19T07:57:33.114Z,88.67
2022-10-19T07:58:33.434Z,88.37
2022-10-19T07:59:33.792Z,87.72
2022-10-19T08:00:34.028Z,87.52
2022-10-19T08:01:34.257Z,87.12
2022-10-19T08:02:45.651Z,86.87
2022-10-19T08:04:59.836Z,86.16
2022-10-19T08:05:36.416Z,86.51
2022-10-19T08:06:35.675Z,86.61
2022-10-19T08:07:35.979Z,86.61
2022-10-19T08:08:36.346Z,86.81
2022-10-19T08:09:53.576Z,87.41
2022-10-19T08:10:41.752Z,87.21
2022-10-19T08:11:37.163Z,86.91
2022-10-19T08:12:37.511Z,86.57
2022-10-19T08:13:37.700Z,86.22
2022-10-19T08:14:37.992Z,85.72
2022-10-19T08:15:38.348Z,85.24
2022-10-19T08:16:38.577Z,84.29
2022-10-19T08:17:38.808Z,82.84
2022-10-19T08:18:39.017Z,82.20
2022-10-19T08:19:39.341Z,80.85
2022-10-19T08:20:39.664Z,79.81
2022-10-19T08:21:39.988Z,78.80
2022-10-19T08:22:40.372Z,79.10
2022-10-19T08:23:40.580Z,79.35
2022-10-19T08:24:40.898Z,79.54
2022-10-19T08:25:41.157Z,79.79
2022-10-19T08:26:41.474Z,80.39
2022-10-19T08:27:41.836Z,80.19
2022-10-19T08:28:42.027Z,80.29
2022-10-19T08:29:42.356Z,79.99
2022-10-19T08:30:42.704Z,80.29
2022-10-19T08:31:43.007Z,79.44
2022-10-19T08:32:43.312Z,79.79
2022-10-19T08:33:45.425Z,79.54
2022-10-19T08:34:43.834Z,78.46
2022-10-19T08:35:44.186Z,78.16
2022-10-19T08:36:44.527Z,77.72
2022-10-19T08:37:45.760Z,76.75
2022-10-19T08:38:45.089Z,75.27
2022-10-19T08:39:45.337Z,74.00
2022-10-19T08:40:45.534Z,71.73
2022-10-19T08:41:45.912Z,71.12
2022-10-19T08:42:46.157Z,69.93
2022-10-19T08:43:46.410Z,70.69
2022-10-19T08:44:46.763Z,71.36
2022-10-19T08:45:47.089Z,69.02
2022-10-19T08:46:47.421Z,66.66
2022-10-19T08:47:47.735Z,65.31
2022-10-19T08:48:48.033Z,63.25
2022-10-19T08:49:48.374Z,61.67
2022-10-19T08:50:48.600Z,60.61
2022-10-19T08:51:52.754Z,59.19
2022-10-19T08:52:49.257Z,58.25
2022-10-19T08:53:49.469Z,56.83
2022-10-19T08:55:11.248Z,55.88
2022-10-19T08:55:50.059Z,55.73
2022-10-19T08:56:51.996Z,54.22
2022-10-19T08:57:50.621Z,53.18
2022-10-19T08:58:50.922Z,53.25
2022-10-19T08:59:51.263Z,55.19
2022-10-19T09:00:51.526Z,54.47
2022-10-19T09:01:51.773Z,54.22
2022-10-19T09:02:52.002Z,52.88
2022-10-19T09:03:56.360Z,51.32
2022-10-19T09:04:52.477Z,49.50
2022-10-19T09:05:52.859Z,48.66
2022-10-19T09:06:53.112Z,47.73
2022-10-19T09:07:53.323Z,47.31
2022-10-19T09:08:53.732Z,46.31
2022-10-19T09:09:53.993Z,48.41
2022-10-19T09:10:54.319Z,49.03
2022-10-19T09:11:54.675Z,50.78
2022-10-19T09:12:57.800Z,51.57
2022-10-19T09:14:04.867Z,49.30
2022-10-19T09:14:56.466Z,49.77
2022-10-19T09:15:55.822Z,48.61
2022-10-19T09:16:56.027Z,50.66
2022-10-19T09:17:56.350Z,50.31
2022-10-19T09:18:56.638Z,51.23
2022-10-19T09:19:56.950Z,51.65
2022-10-19T09:20:57.279Z,52.91
2022-10-19T09:21:57.472Z,51.92
2022-10-19T09:22:57.834Z,54.37
2022-10-19T09:23:58.055Z,52.64
2022-10-19T09:24:58.357Z,54.32
2022-10-19T09:25:58.620Z,55.04
2022-10-19T09:26:58.919Z,56.13
2022-10-19T09:27:59.319Z,52.96
2022-10-19T09:28:59.559Z,53.23
2022-10-19T09:29:59.795Z,51.40
2022-10-19T09:30:59.998Z,49.20
2022-10-19T09:32:00.395Z,49.01
2022-10-19T09:33:00.645Z,47.16
2022-10-19T09:34:00.954Z,46.53
2022-10-19T09:35:01.275Z,45.79
2022-10-19T09:36:01.460Z,44.06
2022-10-19T09:37:05.719Z,44.08
2022-10-19T09:38:02.045Z,44.42
2022-10-19T09:39:02.321Z,46.15
2022-10-19T09:40:02.646Z,46.77
2022-10-19T09:41:02.862Z,47.70
2022-10-19T09:42:03.166Z,49.35
2022-10-19T09:43:03.465Z,49.22
2022-10-19T09:44:03.779Z,47.24
2022-10-19T09:45:04.108Z,44.91
2022-10-19T09:46:10.552Z,44.40
2022-10-19T09:47:07.154Z,43.69
2022-10-19T09:48:12.829Z,43.35
2022-10-19T09:49:06.319Z,42.25
2022-10-19T09:50:05.605Z,43.19
2022-10-19T09:51:05.923Z,45.01
2022-10-19T09:52:06.232Z,45.32
2022-10-19T09:53:06.556Z,45.76
2022-10-19T09:54:06.864Z,46.89
2022-10-19T09:55:07.204Z,48.02
2022-10-19T09:56:07.517Z,49.45
2022-10-19T09:57:07.832Z,50.61
2022-10-19T09:58:08.175Z,51.52
2022-10-19T09:59:08.479Z,52.96
2022-10-19T10:00:08.792Z,53.67
2022-10-19T10:01:09.191Z,53.58
2022-10-19T10:02:09.421Z,53.90
2022-10-19T10:03:09.713Z,54.20
2022-10-19T10:04:10.018Z,54.39
2022-10-19T10:05:10.280Z,55.71
2022-10-19T10:06:10.607Z,56.04
2022-10-19T10:07:10.907Z,56.88
2022-10-19T10:08:11.240Z,58.00
2022-10-19T10:09:11.581Z,58.53
2022-10-19T10:10:11.797Z,59.25
2022-10-19T10:11:12.096Z,58.86
2022-10-19T10:12:12.407Z,59.35
2022-10-19T10:13:12.744Z,59.88
2022-10-19T10:14:12.925Z,59.68
2022-10-19T10:15:13.205Z,60.38
2022-10-19T10:16:13.518Z,60.70
2022-10-19T10:17:13.848Z,61.10
2022-10-19T10:18:14.150Z,61.00
2022-10-19T10:19:14.475Z,60.00
2022-10-19T10:20:14.779Z,60.97
2022-10-19T10:21:15.081Z,60.74
2022-10-19T10:22:15.384Z,60.35
2022-10-19T10:23:15.730Z,60.02
2022-10-19T10:24:16.049Z,58.80
2022-10-19T10:25:16.394Z,59.09
2022-10-19T10:26:16.701Z,58.80
2022-10-19T10:27:17.010Z,58.20
2022-10-19T10:28:17.308Z,57.65
2022-10-19T10:29:17.611Z,57.00
2022-10-19T10:30:17.884Z,55.06
2022-10-19T10:31:18.188Z,52.91
2022-10-19T10:32:18.562Z,50.93
2022-10-19T10:33:33.296Z,49.30
2022-10-19T10:34:28.402Z,48.35
2022-10-19T10:35:20.335Z,46.60
2022-10-19T10:36:19.580Z,45.79
2022-10-19T10:37:19.898Z,45.55
2022-10-19T10:38:20.197Z,43.86
2022-10-19T10:39:20.495Z,44.33
2022-10-19T10:40:23.323Z,43.82
2022-10-19T10:41:21.118Z,43.04
2022-10-19T10:42:21.427Z,42.91
2022-10-19T10:43:21.750Z,42.31
2022-10-19T10:44:21.953Z,41.49
2022-10-19T10:45:22.291Z,40.35
2022-10-19T10:46:22.601Z,39.33
2022-10-19T10:47:22.925Z,38.53
2022-10-19T10:48:26.933Z,38.20
2022-10-19T10:49:23.422Z,36.69
2022-10-19T10:50:23.784Z,36.18
2022-10-19T10:51:23.962Z,35.27
2022-10-19T10:52:24.322Z,34.88
2022-10-19T10:53:24.534Z,34.58
2022-10-19T10:54:24.862Z,34.04
2022-10-19T10:55:25.162Z,33.15
2022-10-19T10:56:25.475Z,33.22
2022-10-19T10:57:25.806Z,32.62
2022-10-19T10:58:29.589Z,32.23
2022-10-19T10:59:26.291Z,32.33
2022-10-19T11:00:26.616Z,32.10
2022-10-19T11:01:27.009Z,30.85
2022-10-19T11:02:27.282Z,31.33
2022-10-19T11:03:27.486Z,31.60
2022-10-19T11:04:27.793Z,31.40
2022-10-19T11:05:28.128Z,30.90
2022-10-19T11:06:28.448Z,30.49
2022-10-19T11:07:28.776Z,30.40
2022-10-19T11:08:29.184Z,29.80
2022-10-19T11:09:29.404Z,30.38
2022-10-19T11:10:29.742Z,30.07
2022-10-19T11:11:29.983Z,29.76
2022-10-19T11:12:32.889Z,28.97
2022-10-19T11:13:31.513Z,29.15
2022-10-19T11:14:30.777Z,28.29
2022-10-19T11:15:31.135Z,28.36
2022-10-19T11:16:31.331Z,28.07
2022-10-19T11:17:31.842Z,27.78
2022-10-19T11:18:31.963Z,27.89
2022-10-19T11:19:32.307Z,28.86
2022-10-19T11:20:32.505Z,28.27
2022-10-19T11:21:32.808Z,27.89
2022-10-19T11:22:33.402Z,28.47
2022-10-19T11:23:33.416Z,28.08
2022-10-19T11:24:33.605Z,27.98
2022-10-19T11:25:33.937Z,27.70
2022-10-19T11:26:34.257Z,28.26
2022-10-19T11:27:34.839Z,27.48
2022-10-19T11:28:34.868Z,28.03
2022-10-19T11:29:35.071Z,27.05
2022-10-19T11:30:38.885Z,26.95
2022-10-19T11:31:35.619Z,27.15
2022-10-19T11:32:36.676Z,26.49
2022-10-19T11:33:36.253Z,27.36
2022-10-19T11:34:36.461Z,26.98
2022-10-19T11:35:36.769Z,27.37
2022-10-19T11:36:37.080Z,27.36
2022-10-19T11:37:45.515Z,27.97
2022-10-19T11:38:38.735Z,28.25
2022-10-19T11:39:38.011Z,28.25
2022-10-19T11:40:40.284Z,27.37
2022-10-19T11:41:38.502Z,27.17
2022-10-19T11:42:38.773Z,27.73
2022-10-19T11:43:39.009Z,26.86
2022-10-19T11:44:39.450Z,26.67
2022-10-19T11:45:39.578Z,26.76
2022-10-19T11:46:39.880Z,27.04
2022-10-19T11:47:40.167Z,27.04
2022-10-19T11:48:43.685Z,26.95
2022-10-19T11:49:40.847Z,26.59
2022-10-19T11:50:44.063Z,26.98
2022-10-19T11:51:42.462Z,27.59
2022-10-19T11:52:41.719Z,28.16
2022-10-19T11:53:42.025Z,27.67
2022-10-19T11:54:42.349Z,27.59
2022-10-19T11:55:42.681Z,27.48
2022-10-19T11:57:01.690Z,27.56
2022-10-19T11:57:44.308Z,27.75
2022-10-19T11:58:43.543Z,27.26
2022-10-19T11:59:43.862Z,26.78
2022-10-19T12:00:44.201Z,27.76
2022-10-19T12:01:44.603Z,27.64
2022-10-19T12:02:44.828Z,26.76
2022-10-19T12:03:45.188Z,26.38
2022-10-19T12:04:45.379Z,26.37
2022-10-19T12:05:45.726Z,26.07
2022-10-19T12:06:46.036Z,26.07
2022-10-19T12:07:46.386Z,25.77
2022-10-19T12:08:46.608Z,26.33
2022-10-19T12:09:46.868Z,25.97
2022-10-19T12:10:47.160Z,26.08
2022-10-19T12:11:47.485Z,26.74
2022-10-19T12:12:47.684Z,25.98
2022-10-19T12:13:47.977Z,25.99
2022-10-19T12:14:48.279Z,25.81
2022-10-19T12:15:48.593Z,26.09
2022-10-19T12:16:48.930Z,26.48
2022-10-19T12:17:49.185Z,26.56
2022-10-19T12:18:49.362Z,26.18
2022-10-19T12:19:49.672Z,25.99
2022-10-19T12:20:50.021Z,26.59
2022-10-19T12:21:50.222Z,26.60
2022-10-19T12:22:50.574Z,27.37
2022-10-19T12:23:50.810Z,26.76
2022-10-19T12:24:51.093Z,26.28
2022-10-19T12:25:51.383Z,26.27
2022-10-19T12:26:51.682Z,25.98
2022-10-19T12:27:52.048Z,26.26
2022-10-19T12:28:52.232Z,25.68
2022-10-19T12:29:52.538Z,25.98
2022-10-19T12:30:52.887Z,26.48
2022-10-19T12:31:53.072Z,25.99
2022-10-19T12:32:54.343Z,26.46
2022-10-19T12:33:53.644Z,26.18
2022-10-19T12:34:53.965Z,26.60
2022-10-19T12:35:54.296Z,26.81
2022-10-19T12:36:54.599Z,26.60
2022-10-19T12:37:54.944Z,26.71
2022-10-19T12:39:00.240Z,27.08
2022-10-19T12:39:56.551Z,26.39
2022-10-19T12:40:55.805Z,26.38
2022-10-19T12:41:56.143Z,26.57
2022-10-19T12:42:56.462Z,25.71
2022-10-19T12:43:56.770Z,26.48
2022-10-19T12:44:58.742Z,26.09
2022-10-19T12:45:57.401Z,25.98
2022-10-19T12:47:00.793Z,25.99
2022-10-19T12:47:58.062Z,26.39
2022-10-19T12:48:58.370Z,26.48
2022-10-19T12:49:58.668Z,26.48
2022-10-19T12:50:58.977Z,25.99
2022-10-19T12:51:59.291Z,26.27
2022-10-19T12:52:59.595Z,26.75
2022-10-19T12:53:59.904Z,26.07
2022-10-19T12:55:00.211Z,25.68
2022-10-19T12:56:00.540Z,25.49
2022-10-19T12:57:00.748Z,25.40
2022-10-19T12:58:00.961Z,25.49
2022-10-19T12:59:01.298Z,25.79
2022-10-19T13:00:01.656Z,25.81
2022-10-19T13:01:01.915Z,26.28
2022-10-19T13:02:02.115Z,25.82
2022-10-19T13:03:02.458Z,26.01
2022-10-19T13:04:02.797Z,26.09
2022-10-19T13:05:02.985Z,25.89
2022-10-19T13:06:03.344Z,25.51
2022-10-19T13:07:03.540Z,25.70
2022-10-19T13:08:03.943Z,25.62
2022-10-19T13:09:04.201Z,26.31
2022-10-19T13:10:04.493Z,26.92
2022-10-19T13:11:04.821Z,27.04
2022-10-19T13:12:05.121Z,27.53
2022-10-19T13:13:05.530Z,27.66
2022-10-19T13:14:05.668Z,28.04
2022-10-19T13:15:05.861Z,28.34
2022-10-19T13:16:06.169Z,28.84
2022-10-19T13:17:06.479Z,28.25
2022-10-19T13:18:06.816Z,28.94
2022-10-19T13:19:07.126Z,30.24
2022-10-19T13:20:07.431Z,29.94
2022-10-19T13:21:08.528Z,29.85
2022-10-19T13:22:08.031Z,29.05
2022-10-19T13:23:08.354Z,28.53
2022-10-19T13:24:08.662Z,28.41
2022-10-19T13:25:08.958Z,27.71
2022-10-19T13:26:09.335Z,26.84
2022-10-19T13:27:09.539Z,26.84
2022-10-19T13:28:09.846Z,27.02
2022-10-19T13:29:10.161Z,26.82
2022-10-19T13:30:10.500Z,27.12
2022-10-19T13:31:14.215Z,27.35
2022-10-19T13:32:10.997Z,28.14
2022-10-19T13:33:11.300Z,28.33
2022-10-19T13:34:11.616Z,27.66
2022-10-19T13:35:11.948Z,28.12
2022-10-19T13:36:12.260Z,27.96
2022-10-19T13:37:12.561Z,28.05
2022-10-19T13:38:12.959Z,28.15
2022-10-19T13:39:13.151Z,28.56
2022-10-19T13:40:13.430Z,28.56
2022-10-19T13:41:13.732Z,28.76
2022-10-19T13:42:14.011Z,28.77
2022-10-19T13:43:14.341Z,29.17
2022-10-19T13:44:14.644Z,29.28
2022-10-19T13:45:14.949Z,29.59
2022-10-19T13:46:15.242Z,30.10
2022-10-19T13:47:15.565Z,30.39
2022-10-19T13:48:15.884Z,30.28
2022-10-19T13:49:16.172Z,30.20
2022-10-19T13:50:16.487Z,30.73
2022-10-19T13:51:16.785Z,31.10
2022-10-19T13:52:17.104Z,30.91
2022-10-19T13:53:17.427Z,31.02
2022-10-19T13:54:17.736Z,31.81
2022-10-19T13:55:18.034Z,32.73
2022-10-19T13:56:18.338Z,33.58
2022-10-19T13:57:18.664Z,35.30
2022-10-19T13:58:18.971Z,37.04
2022-10-19T13:59:19.281Z,38.76
2022-10-19T14:00:19.583Z,40.19
2022-10-19T14:01:19.942Z,41.11
2022-10-19T14:02:20.210Z,42.04
2022-10-19T14:03:20.507Z,43.16
2022-10-19T14:04:20.839Z,43.99
2022-10-19T14:05:21.153Z,44.09
2022-10-19T14:06:23.527Z,44.51
2022-10-19T14:07:21.697Z,45.00
2022-10-19T14:08:22.011Z,44.62
2022-10-19T14:09:22.877Z,45.43
2022-10-19T14:10:28.183Z,45.83
2022-10-19T14:11:23.929Z,46.03
2022-10-19T14:12:23.150Z,46.34
2022-10-19T14:13:23.448Z,46.64
2022-10-19T14:14:23.772Z,47.06
2022-10-19T14:15:24.085Z,47.28
2022-10-19T14:16:24.389Z,47.79
2022-10-19T14:17:24.691Z,48.61
2022-10-19T14:18:24.983Z,48.83
2022-10-19T14:19:25.285Z,49.32
2022-10-19T14:20:25.680Z,49.52
2022-10-19T14:21:25.858Z,49.13
2022-10-19T14:22:26.195Z,49.42
2022-10-19T14:23:26.485Z,49.54
2022-10-19T14:24:26.788Z,50.24
2022-10-19T14:25:27.079Z,50.76
2022-10-19T14:26:27.397Z,51.28
2022-10-19T14:27:27.697Z,51.72
2022-10-19T14:28:28.008Z,52.84
2022-10-19T14:29:28.306Z,53.13
2022-10-19T14:30:28.655Z,53.66
2022-10-19T14:31:28.832Z,54.35
2022-10-19T14:32:29.179Z,55.07
2022-10-19T14:33:29.389Z,55.10
2022-10-19T14:34:29.682Z,55.22
2022-10-19T14:35:30.007Z,55.62
2022-10-19T14:36:30.299Z,55.44
2022-10-19T14:37:30.600Z,56.04
2022-10-19T14:38:30.906Z,56.44
2022-10-19T14:39:31.171Z,56.57
2022-10-19T14:40:31.530Z,56.79
2022-10-19T14:41:31.833Z,57.19
2022-10-19T14:42:32.461Z,57.92
2022-10-19T14:43:32.319Z,58.11
2022-10-19T14:44:32.623Z,58.84
2022-10-19T14:45:32.948Z,58.64
2022-10-19T14:46:33.234Z,58.64
2022-10-19T14:47:33.568Z,58.54
2022-10-19T14:48:33.868Z,58.64
2022-10-19T14:49:34.167Z,58.14
2022-10-19T14:50:34.520Z,58.14
2022-10-19T14:51:34.728Z,58.34
2022-10-19T14:52:35.044Z,58.57
2022-10-19T14:53:35.350Z,58.87
2022-10-19T14:54:35.623Z,59.27
2022-10-19T14:55:35.967Z,59.79
2022-10-19T14:56:36.151Z,59.59
2022-10-19T14:57:36.910Z,60.32
2022-10-19T14:58:36.782Z,60.75
2022-10-19T14:59:37.148Z,60.95
2022-10-19T15:00:37.357Z,60.95
2022-10-19T15:01:37.712Z,61.47